Time;durP1;ratioP1;P1;durP2;ratioP2;P2;SDS_P1;SDS_P2;PMS_P1;PMS_P2;Temp;Humidity;BMP_temperature;BMP_pressure;BME280_temperature;BME280_humidity;BME280_pressure;Samples;Min_cycle;Max_cycle;Signal;HPM_P1;HPM_P2
2022/11/09 00:01:01;;;;;;;6.00;3.72;;;;;;;12.84;74.24;101249.38;4961955;28;20043;-78
2022/11/09 00:03:30;;;;;;;7.53;4.13;;;;;;;12.80;73.80;101244.75;4973175;28;20054;-78
2022/11/09 00:05:59;;;;;;;6.80;3.95;;;;;;;12.88;74.24;101253.22;4973396;28;20047;-78
2022/11/09 00:08:27;;;;;;;6.20;4.30;;;;;;;12.89;73.61;101246.63;4973624;28;20051;-78
2022/11/09 00:11:02;;;;;;;5.95;3.80;;;;;;;12.80;73.38;101247.47;5003180;28;20051;-79
2022/11/09 00:13:31;;;;;;;7.05;4.32;;;;;;;12.75;73.76;101243.66;4992266;28;20478;-78
2022/11/09 00:16:00;;;;;;;7.00;3.75;;;;;;;12.71;74.26;101239.00;4993078;28;20425;-78
2022/11/09 00:18:29;;;;;;;5.15;4.18;;;;;;;12.75;77.36;101238.16;4992872;28;20050;-79
2022/11/09 00:20:57;;;;;;;6.38;4.03;;;;;;;12.79;75.66;101241.16;4983896;28;20084;-78
2022/11/09 00:23:24;;;;;;;5.43;3.88;;;;;;;12.68;75.62;101242.28;4972810;28;20053;-78
2022/11/09 00:25:59;;;;;;;7.78;3.85;;;;;;;12.75;75.87;101242.81;4989159;28;20051;-78
2022/11/09 00:28:27;;;;;;;7.28;3.63;;;;;;;12.73;77.19;101250.50;4971212;28;20039;-78
2022/11/09 00:31:03;;;;;;;5.38;4.40;;;;;;;12.69;77.19;101233.78;5003335;28;20042;-78
2022/11/09 00:33:53;;;;;;;6.63;4.00;;;;;;;12.69;75.42;101232.94;4972937;28;20054;-78
2022/11/09 00:36:22;;;;;;;8.93;4.80;;;;;;;12.77;75.62;101235.13;4973298;28;20279;-79
2022/11/09 00:39:02;;;;;;;6.70;4.07;;;;;;;12.75;76.51;101229.91;4983416;28;20397;-79
2022/11/09 00:41:32;;;;;;;9.35;4.75;;;;;;;12.64;76.35;101222.78;4985838;28;20388;-78
2022/11/09 00:44:01;;;;;;;7.88;4.68;;;;;;;12.66;75.79;101222.53;4990782;28;20509;-79
2022/11/09 00:46:29;;;;;;;5.05;3.90;;;;;;;12.72;76.07;101219.47;4970542;28;20051;-78
2022/11/09 00:48:57;;;;;;;8.95;4.78;;;;;;;12.73;78.46;101212.06;4972497;28;20043;-78
2022/11/09 00:51:43;;;;;;;8.18;4.68;;;;;;;12.75;77.73;101215.34;4983065;28;20065;-78
2022/11/09 00:54:47;;;;;;;7.82;4.50;;;;;;;12.71;77.62;101222.53;4966107;28;20047;-79
2022/11/09 00:57:15;;;;;;;7.78;4.13;;;;;;;12.74;77.76;101216.44;4973159;28;20062;-78
2022/11/09 00:59:45;;;;;;;7.63;4.50;;;;;;;12.73;77.15;101234.03;4974590;28;20058;-78
2022/11/09 01:02:13;;;;;;;9.45;4.57;;;;;;;12.76;78.11;101233.50;4976333;28;20058;-78
2022/11/09 01:04:41;;;;;;;5.80;4.50;;;;;;;12.73;77.02;101232.13;4980460;28;20046;-78
2022/11/09 01:07:08;;;;;;;8.45;4.70;;;;;;;12.81;75.33;101224.41;4992391;28;20434;-78
2022/11/09 01:09:37;;;;;;;6.80;4.68;;;;;;;12.68;75.74;101220.31;4989544;28;20397;-78
2022/11/09 01:12:06;;;;;;;8.77;4.45;;;;;;;12.71;75.71;101226.06;4971121;28;20047;-78
2022/11/09 01:14:33;;;;;;;6.88;4.85;;;;;;;12.72;75.44;101224.97;4983729;28;20051;-78
2022/11/09 01:17:02;;;;;;;5.68;3.92;;;;;;;12.73;75.72;101220.31;4991090;28;20050;-78
2022/11/09 01:19:30;;;;;;;8.52;4.22;;;;;;;12.71;76.18;101211.53;4989767;28;20060;-78
2022/11/09 01:21:58;;;;;;;5.78;4.07;;;;;;;12.73;77.73;101201.06;4989822;28;20109;-78
2022/11/09 01:24:27;;;;;;;7.93;4.10;;;;;;;12.60;77.80;101211.53;4990038;28;20065;-78
2022/11/09 01:26:55;;;;;;;11.65;4.50;;;;;;;12.49;77.47;101212.66;4983639;28;20050;-79
2022/11/09 01:29:23;;;;;;;8.75;4.43;;;;;;;12.59;77.98;101209.06;4982840;28;20038;-78
2022/11/09 01:31:54;;;;;;;8.88;4.82;;;;;;;12.54;77.87;101209.09;4975623;28;20053;-78
2022/11/09 01:34:22;;;;;;;6.28;4.70;;;;;;;12.59;77.67;101207.16;4972762;28;20054;-78
2022/11/09 01:36:50;;;;;;;9.27;4.43;;;;;;;12.54;78.05;101209.91;4972819;28;20047;-78
2022/11/09 01:39:18;;;;;;;7.50;4.28;;;;;;;12.72;78.70;101193.94;4971760;28;20043;-78
2022/11/09 01:41:47;;;;;;;5.70;4.25;;;;;;;12.67;77.92;101202.19;5000201;28;20058;-78
2022/11/09 01:44:18;;;;;;;8.10;4.15;;;;;;;12.71;77.50;101203.28;4992103;28;20472;-78
2022/11/09 01:47:25;;;;;;;8.82;4.78;;;;;;;12.74;78.62;101194.47;4989266;28;20046;-78
2022/11/09 01:49:59;;;;;;;9.52;5.45;;;;;;;12.74;77.48;101186.25;4941157;29;20503;-78
2022/11/09 01:52:35;;;;;;;8.07;4.85;;;;;;;12.81;77.41;101197.75;4922524;29;20058;-78
2022/11/09 01:55:10;;;;;;;6.90;4.30;;;;;;;12.80;76.97;101179.63;4960668;28;20062;-78
2022/11/09 01:57:49;;;;;;;9.30;4.47;;;;;;;12.69;78.60;101162.38;4980683;28;20057;-78
2022/11/09 02:00:17;;;;;;;8.30;4.78;;;;;;;12.44;78.16;101180.56;4983257;28;20397;-78
2022/11/09 02:02:54;;;;;;;6.88;4.75;;;;;;;12.58;77.85;101194.53;4995374;28;20398;-78
2022/11/09 02:05:26;;;;;;;8.35;5.00;;;;;;;12.77;78.18;101200.22;4994128;28;20038;-78
2022/11/09 02:07:58;;;;;;;10.63;5.43;;;;;;;12.89;77.29;101199.94;4982434;28;20047;-78
2022/11/09 02:10:47;;;;;;;9.30;4.82;;;;;;;12.93;77.67;101202.09;4975763;28;20058;-78
2022/11/09 02:13:18;;;;;;;9.40;5.53;;;;;;;12.88;76.67;101198.28;4975680;28;20062;-78
2022/11/09 02:15:48;;;;;;;6.57;4.57;;;;;;;12.81;76.97;101197.75;4975211;28;20047;-78
2022/11/09 02:18:17;;;;;;;5.60;4.28;;;;;;;12.87;78.01;101202.13;4974816;28;20047;-78
2022/11/09 02:20:50;;;;;;;8.70;4.88;;;;;;;12.94;76.88;101223.00;4975786;28;20054;-78
2022/11/09 02:23:26;;;;;;;6.53;4.25;;;;;;;12.89;75.83;101205.44;4989550;28;20046;-78
2022/11/09 02:26:04;;;;;;;5.47;4.20;;;;;;;12.80;76.58;101207.09;4993870;28;20061;-79
2022/11/09 02:28:34;;;;;;;6.90;4.30;;;;;;;12.84;75.93;101208.19;4977254;28;20050;-78
2022/11/09 02:31:04;;;;;;;8.23;4.15;;;;;;;12.83;77.15;101206.56;4981238;28;20046;-78
2022/11/09 02:33:44;;;;;;;7.78;4.60;;;;;;;12.83;76.11;101202.97;4993677;28;20042;-79
2022/11/09 02:36:12;;;;;;;8.88;4.70;;;;;;;12.80;76.83;101204.34;4994692;28;20058;-79
2022/11/09 02:38:40;;;;;;;7.45;4.50;;;;;;;12.77;76.10;101196.69;4991197;28;20046;-77
2022/11/09 02:41:11;;;;;;;11.07;5.03;;;;;;;12.84;76.47;101207.34;4993337;28;20046;-78
2022/11/09 02:43:39;;;;;;;9.80;4.38;;;;;;;12.83;76.19;101205.72;4986941;28;20061;-78
2022/11/09 02:46:08;;;;;;;7.60;4.35;;;;;;;12.79;76.58;101199.97;4992724;28;20050;-78
2022/11/09 02:48:36;;;;;;;9.50;4.03;;;;;;;12.78;74.39;101192.81;4975363;28;20481;-78
2022/11/09 02:51:04;;;;;;;6.63;4.25;;;;;;;12.87;73.39;101191.13;4988677;28;20157;-78
2022/11/09 02:53:31;;;;;;;8.80;4.82;;;;;;;12.88;72.99;101191.97;4988658;28;20039;-77
2022/11/09 02:56:01;;;;;;;9.10;4.53;;;;;;;12.92;72.80;101208.72;4973662;28;20508;-78
2022/11/09 02:58:29;;;;;;;6.03;3.97;;;;;;;12.92;73.24;101212.28;4988981;28;20043;-78
2022/11/09 03:00:57;;;;;;;7.40;4.15;;;;;;;12.83;76.51;101212.03;4979627;28;20050;-78
2022/11/09 03:03:25;;;;;;;7.90;4.20;;;;;;;12.72;74.79;101213.97;4994407;28;20501;-78
2022/11/09 03:05:52;;;;;;;6.85;4.60;;;;;;;12.72;75.47;101207.69;4994330;28;20054;-78
2022/11/09 03:08:20;;;;;;;5.75;4.07;;;;;;;12.59;75.44;101218.16;4976354;28;20039;-78
2022/11/09 03:10:51;;;;;;;8.18;3.67;;;;;;;12.63;75.72;101218.41;5004042;28;20051;-78
2022/11/09 03:13:19;;;;;;;6.53;3.90;;;;;;;12.71;75.37;101228.00;5006904;28;20062;-78
2022/11/09 03:15:47;;;;;;;9.18;4.07;;;;;;;12.68;75.87;101234.88;4992780;28;20481;-78
2022/11/09 03:18:15;;;;;;;8.07;4.53;;;;;;;12.75;76.69;101238.16;4977269;28;20371;-77
2022/11/09 03:20:43;;;;;;;7.18;4.10;;;;;;;12.84;76.67;101240.31;4975193;28;20046;-78
2022/11/09 03:23:15;;;;;;;5.65;3.80;;;;;;;12.81;76.58;101229.91;4973529;28;20441;-78
2022/11/09 03:25:43;;;;;;;9.73;3.92;;;;;;;12.74;76.51;101235.66;4973055;28;20049;-78
2022/11/09 03:28:11;;;;;;;5.80;4.10;;;;;;;12.63;76.78;101243.94;4967141;28;20050;-78
2022/11/09 03:30:40;;;;;;;6.72;4.57;;;;;;;12.64;76.23;101233.78;4978356;28;20047;-78
2022/11/09 03:33:09;;;;;;;7.68;4.32;;;;;;;12.69;76.36;101233.78;4979077;28;20482;-78
2022/11/09 03:35:38;;;;;;;7.57;3.83;;;;;;;12.69;76.49;101232.94;4973113;28;20418;-78
2022/11/09 03:38:06;;;;;;;8.63;4.43;;;;;;;12.70;77.09;101234.59;4973423;28;20043;-78
2022/11/09 03:40:35;;;;;;;6.93;4.40;;;;;;;12.73;78.43;101223.88;5004601;28;20055;-78
2022/11/09 03:43:02;;;;;;;6.28;4.03;;;;;;;12.65;76.99;101223.63;4973020;28;20402;-78
2022/11/09 03:45:31;;;;;;;7.38;4.28;;;;;;;12.65;77.65;101227.19;4979275;28;20057;-78
2022/11/09 03:47:59;;;;;;;7.97;4.07;;;;;;;12.70;79.01;101224.44;4979137;28;20517;-78
2022/11/09 03:50:32;;;;;;;8.05;4.78;;;;;;;12.71;77.26;101225.25;4974128;28;20394;-78
2022/11/09 03:53:01;;;;;;;7.15;4.80;;;;;;;12.71;77.99;101230.75;4974041;28;20051;-78
2022/11/09 03:55:29;;;;;;;5.95;4.47;;;;;;;12.79;77.16;101232.91;4988723;28;20051;-78
2022/11/09 03:57:57;;;;;;;8.35;4.55;;;;;;;12.83;77.98;101235.94;4986954;28;20038;-78
2022/11/09 04:00:25;;;;;;;6.60;4.60;;;;;;;12.81;77.74;101233.44;4980178;28;20046;-78
2022/11/09 04:02:53;;;;;;;8.88;4.93;;;;;;;12.78;77.75;101231.28;4989844;28;20055;-78
2022/11/09 04:05:21;;;;;;;8.13;4.82;;;;;;;12.74;78.13;101239.25;4991988;28;20421;-78
2022/11/09 04:07:51;;;;;;;7.63;4.70;;;;;;;12.72;80.55;101238.69;4987748;28;20046;-77
2022/11/09 04:10:20;;;;;;;7.70;4.88;;;;;;;12.73;78.89;101239.53;4990933;28;20370;-78
2022/11/09 04:12:48;;;;;;;11.65;4.70;;;;;;;12.77;78.92;101237.88;4993011;28;20049;-78
2022/11/09 04:15:16;;;;;;;8.10;4.53;;;;;;;12.71;79.95;101230.75;4992946;28;20042;-78
2022/11/09 04:17:53;;;;;;;6.35;4.13;;;;;;;12.68;81.24;101229.38;4987463;28;20046;-78
2022/11/09 04:20:21;;;;;;;7.28;4.32;;;;;;;12.66;79.39;101233.50;4983616;28;20051;-78
2022/11/09 04:23:02;;;;;;;8.98;4.80;;;;;;;12.68;79.55;101239.53;4980198;28;20050;-78
2022/11/09 04:25:35;;;;;;;8.25;4.72;;;;;;;12.65;80.14;101234.63;4954171;29;20054;-78
2022/11/09 04:28:04;;;;;;;7.65;4.80;;;;;;;12.67;80.59;101226.91;4964288;28;20478;-78
2022/11/09 04:30:34;;;;;;;7.72;4.55;;;;;;;12.69;81.47;101227.44;4979559;28;20046;-78
2022/11/09 04:33:03;;;;;;;7.28;4.55;;;;;;;12.70;80.42;101237.34;4992754;28;20057;-78
2022/11/09 04:35:32;;;;;;;8.93;5.10;;;;;;;12.69;80.28;101227.44;4981014;28;20050;-78
2022/11/09 04:38:03;;;;;;;6.82;4.57;;;;;;;12.65;78.88;101220.88;4990481;28;20058;-77
2022/11/09 04:40:33;;;;;;;7.25;4.38;;;;;;;12.54;79.90;101226.38;4982253;28;20821;-78
2022/11/09 04:43:03;;;;;;;8.70;4.60;;;;;;;12.66;81.78;101228.00;4970964;28;20343;-78
2022/11/09 04:45:33;;;;;;;10.30;5.18;;;;;;;12.67;82.82;101221.41;4972209;28;20521;-78
2022/11/09 04:48:03;;;;;;;8.68;4.82;;;;;;;12.63;82.87;101221.97;4974133;28;20046;-78
2022/11/09 04:50:31;;;;;;;7.90;4.78;;;;;;;12.58;82.89;101222.00;5004204;28;20057;-78
2022/11/09 04:53:11;;;;;;;8.13;4.72;;;;;;;12.59;81.64;101222.81;4973057;28;20043;-78
2022/11/09 04:55:39;;;;;;;8.65;4.88;;;;;;;12.58;82.58;101232.16;4972632;28;20043;-78
2022/11/09 04:58:08;;;;;;;13.43;5.65;;;;;;;12.55;81.46;101227.19;4987514;28;20043;-77
2022/11/09 05:00:36;;;;;;;12.85;5.47;;;;;;;12.54;82.29;101218.16;4971247;28;20533;-78
2022/11/09 05:03:06;;;;;;;10.68;5.70;;;;;;;12.58;83.02;101205.53;4972369;28;20347;-78
2022/11/09 05:05:35;;;;;;;11.43;5.93;;;;;;;12.53;82.90;101208.28;4972974;28;20051;-78
2022/11/09 05:08:04;;;;;;;10.93;6.07;;;;;;;12.55;82.94;101206.06;4982294;28;20445;-77
2022/11/09 05:10:32;;;;;;;17.58;5.53;;;;;;;12.61;83.18;101210.44;4953691;29;20051;-78
2022/11/09 05:13:06;;;;;;;12.00;6.07;;;;;;;12.62;83.55;101214.03;4953626;29;20052;-78
2022/11/09 05:15:35;;;;;;;7.63;5.13;;;;;;;12.65;83.29;101207.16;4975563;28;20057;-78
2022/11/09 05:18:04;;;;;;;13.13;6.43;;;;;;;12.68;82.92;101214.81;4989552;28;20077;-78
2022/11/09 05:20:32;;;;;;;12.50;5.88;;;;;;;12.69;83.35;101216.47;4989053;28;20043;-78
2022/11/09 05:25:48;;;;;;;11.30;5.40;;;;;;;12.73;81.98;101212.91;4979416;28;20053;-78
2022/11/09 05:28:15;;;;;;;12.63;5.80;;;;;;;12.70;82.31;101199.72;4972818;28;20047;-78
2022/11/09 05:30:43;;;;;;;14.98;5.70;;;;;;;12.60;83.49;101195.06;4975567;28;20073;-79
2022/11/09 05:33:13;;;;;;;13.60;4.85;;;;;;;12.95;79.22;101197.16;4989888;28;20050;-77
2022/11/09 05:35:43;;;;;;;14.68;5.30;;;;;;;13.24;78.50;101204.75;4986665;28;20058;-77
2022/11/09 05:38:11;;;;;;;9.45;5.20;;;;;;;13.39;77.42;101204.63;4990323;28;20069;-77
2022/11/09 05:40:39;;;;;;;9.27;6.03;;;;;;;13.53;76.94;101198.53;4980293;28;20522;-77
2022/11/09 05:43:07;;;;;;;12.43;5.88;;;;;;;13.64;75.66;101194.59;4976495;28;20047;-77
2022/11/09 05:45:35;;;;;;;7.97;5.85;;;;;;;13.82;75.35;101200.53;4975140;28;20498;-78
2022/11/09 05:48:15;;;;;;;12.35;5.40;;;;;;;13.80;75.55;101198.09;4987883;28;20077;-78
2022/11/09 05:50:43;;;;;;;10.68;4.88;;;;;;;13.82;76.10;101211.53;4991914;28;20061;-78
2022/11/09 05:53:21;;;;;;;7.88;4.85;;;;;;;13.82;75.68;101208.78;4994496;28;20405;-78
2022/11/09 05:55:49;;;;;;;8.40;5.28;;;;;;;13.54;77.69;101201.00;4995578;28;20051;-78
2022/11/09 05:58:17;;;;;;;9.63;6.10;;;;;;;13.57;76.84;101196.88;4989891;28;20043;-78
2022/11/09 06:00:45;;;;;;;7.60;4.97;;;;;;;13.54;77.78;101200.19;4976630;28;20051;-76
2022/11/09 06:03:13;;;;;;;8.25;5.45;;;;;;;13.68;77.10;101206.69;4991085;28;20051;-77
2022/11/09 06:05:42;;;;;;;10.95;5.45;;;;;;;13.69;76.58;101204.78;4994279;28;20053;-77
2022/11/09 06:08:12;;;;;;;9.85;5.57;;;;;;;13.68;76.63;101205.84;4995312;28;20050;-77
2022/11/09 06:10:41;;;;;;;10.18;5.72;;;;;;;13.75;76.12;101211.03;4995545;28;20038;-77
2022/11/09 06:13:10;;;;;;;12.63;7.00;;;;;;;13.46;77.30;101203.50;4982752;28;20050;-76
2022/11/09 06:15:38;;;;;;;12.55;6.70;;;;;;;13.57;76.57;101194.94;4974218;28;20058;-76
2022/11/09 06:18:06;;;;;;;10.70;5.78;;;;;;;13.73;75.45;101208.56;4975283;28;20051;-77
2022/11/09 06:20:34;;;;;;;9.90;6.85;;;;;;;13.68;75.57;101195.69;4975005;28;20596;-77
2022/11/09 06:23:02;;;;;;;11.50;6.47;;;;;;;13.74;75.08;101206.66;4975606;28;20046;-77
2022/11/09 06:25:31;;;;;;;11.52;7.30;;;;;;;13.75;74.35;101206.38;4975526;28;20506;-77
2022/11/09 06:28:00;;;;;;;12.07;7.20;;;;;;;13.76;75.13;101210.78;4975487;28;20054;-77
2022/11/09 06:30:29;;;;;;;13.77;6.93;;;;;;;13.80;74.78;101217.34;4975309;28;20398;-77
2022/11/09 06:33:01;;;;;;;15.40;8.07;;;;;;;13.62;75.66;101215.25;4974767;28;20054;-76
2022/11/09 06:35:29;;;;;;;16.15;7.88;;;;;;;13.61;75.56;101211.69;4985041;28;20053;-77
2022/11/09 06:37:59;;;;;;;12.93;7.47;;;;;;;13.75;75.19;101224.81;4994486;28;20050;-77
2022/11/09 06:40:27;;;;;;;14.63;7.30;;;;;;;13.70;74.47;101226.47;4990056;28;20494;-77
2022/11/09 06:42:58;;;;;;;16.48;7.93;;;;;;;13.65;74.25;101221.00;4988412;28;20520;-77
2022/11/09 06:45:27;;;;;;;13.43;7.13;;;;;;;13.76;73.47;101237.44;4973874;28;20051;-78
2022/11/09 06:47:59;;;;;;;11.52;7.07;;;;;;;13.56;74.04;101230.97;4974074;28;20050;-76
2022/11/09 06:50:31;;;;;;;11.00;8.02;;;;;;;13.40;74.79;101220.03;4972012;28;20046;-75
2022/11/09 06:53:01;;;;;;;10.93;7.20;;;;;;;13.20;77.06;101231.94;4973600;28;20379;-75
2022/11/09 06:55:31;;;;;;;14.43;8.15;;;;;;;13.16;77.49;101236.38;4973467;28;20054;-75
2022/11/09 06:58:03;;;;;;;13.07;7.97;;;;;;;13.15;78.13;101235.53;4973551;28;20062;-75
2022/11/09 07:00:31;;;;;;;14.38;7.95;;;;;;;13.10;78.73;101241.06;4974022;28;20063;-75
2022/11/09 07:02:59;;;;;;;20.15;9.35;;;;;;;13.15;78.07;101235.53;4973859;28;20494;-75
2022/11/09 07:05:27;;;;;;;16.55;8.07;;;;;;;13.10;79.13;101241.06;4973554;28;20050;-75
2022/11/09 07:07:56;;;;;;;17.27;9.02;;;;;;;13.18;77.59;101236.91;4973448;28;20054;-75
2022/11/09 07:10:24;;;;;;;13.25;8.35;;;;;;;13.15;77.74;101235.53;4973584;28;20058;-75
2022/11/09 07:12:52;;;;;;;15.18;9.10;;;;;;;13.29;78.89;101240.41;4973547;28;20054;-75
2022/11/09 07:15:20;;;;;;;19.88;9.55;;;;;;;13.31;78.48;101249.22;4973510;28;20058;-75
2022/11/09 07:17:47;;;;;;;18.08;9.25;;;;;;;13.36;79.59;101235.47;4973165;28;20050;-75
2022/11/09 07:20:15;;;;;;;15.27;9.07;;;;;;;13.48;79.30;101232.38;4973698;28;20059;-75
2022/11/09 07:22:43;;;;;;;16.83;9.98;;;;;;;13.46;78.30;101233.75;4973096;28;20498;-75
2022/11/09 07:25:12;;;;;;;16.75;9.25;;;;;;;13.56;76.79;101240.06;4973553;28;20050;-75
2022/11/09 07:27:40;;;;;;;21.92;10.18;;;;;;;13.67;77.40;101243.56;4973266;28;20406;-74
2022/11/09 07:30:08;;;;;;;19.67;10.20;;;;;;;13.73;78.64;101241.59;4973295;28;20058;-75
2022/11/09 07:32:38;;;;;;;16.92;10.25;;;;;;;13.70;76.89;101240.22;4972741;28;20058;-75
2022/11/09 07:35:26;;;;;;;20.52;11.50;;;;;;;13.67;76.19;101250.97;4973145;28;20059;-75
2022/11/09 07:37:59;;;;;;;22.52;11.80;;;;;;;13.57;76.79;101243.59;4972884;28;20061;-75
2022/11/09 07:40:28;;;;;;;20.37;11.63;;;;;;;13.74;76.48;101253.41;4929652;28;1284676;-75
2022/11/09 07:43:00;;;;;;;17.20;10.88;;;;;;;13.79;75.76;101253.38;4973612;28;20050;-75
2022/11/09 07:45:29;;;;;;;22.92;11.73;;;;;;;13.70;79.67;101255.91;4973826;28;20043;-75
2022/11/09 07:48:00;;;;;;;21.48;12.43;;;;;;;13.65;79.83;101259.50;4973581;28;20043;-75
2022/11/09 07:50:30;;;;;;;21.27;12.10;;;;;;;13.69;80.19;101257.84;4974328;28;20058;-75
2022/11/09 07:52:59;;;;;;;23.60;13.23;;;;;;;13.58;81.88;101253.50;4973717;28;20070;-74
2022/11/09 07:55:28;;;;;;;26.30;14.00;;;;;;;13.53;83.73;101253.53;4973716;28;20493;-74
2022/11/09 07:58:06;;;;;;;27.52;14.45;;;;;;;13.51;84.69;101250.25;4972987;28;20085;-75
2022/11/09 08:00:36;;;;;;;29.58;14.27;;;;;;;13.42;86.01;101245.31;4973684;28;20058;-75
2022/11/09 08:03:04;;;;;;;25.35;14.52;;;;;;;13.37;85.78;101247.25;4973696;28;20398;-75
2022/11/09 08:05:32;;;;;;;34.67;14.70;;;;;;;13.25;87.92;101250.34;4973861;28;20051;-75
2022/11/09 08:08:03;;;;;;;33.60;15.13;;;;;;;13.22;87.93;101243.50;4973651;28;20050;-75
2022/11/09 08:10:32;;;;;;;30.77;16.27;;;;;;;13.25;88.79;101242.09;4973683;28;20070;-74
2022/11/09 08:13:07;;;;;;;28.45;16.10;;;;;;;13.20;87.63;101231.13;4973568;28;20358;-74
2022/11/09 08:15:37;;;;;;;27.80;15.07;;;;;;;13.15;87.52;101232.00;4973086;28;20062;-75
2022/11/09 08:18:11;;;;;;;27.92;15.40;;;;;;;12.98;87.90;101230.41;4973331;28;20042;-75
2022/11/09 08:20:39;;;;;;;30.10;14.43;;;;;;;13.07;88.57;101233.38;4973351;28;20494;-74
2022/11/09 08:23:11;;;;;;;30.15;17.23;;;;;;;13.23;88.97;101236.06;4972139;28;20172;-74
2022/11/09 08:25:39;;;;;;;31.25;16.85;;;;;;;13.36;87.02;101243.72;4973568;28;20057;-74
2022/11/09 08:28:07;;;;;;;27.90;16.30;;;;;;;13.30;87.04;101253.09;4973273;28;20521;-74
2022/11/09 08:30:42;;;;;;;28.73;16.33;;;;;;;13.24;87.08;101241.28;4973285;28;20074;-74
2022/11/09 08:33:11;;;;;;;31.63;16.70;;;;;;;13.44;87.09;101232.09;4973211;28;20055;-74
2022/11/09 08:35:39;;;;;;;31.70;16.42;;;;;;;13.47;87.88;101240.91;4972927;28;20062;-73
2022/11/09 08:38:08;;;;;;;27.23;16.42;;;;;;;13.40;86.83;101236.50;4973166;28;20051;-74
2022/11/09 08:40:36;;;;;;;28.05;16.77;;;;;;;13.30;87.50;101231.09;4972753;28;20492;-74
2022/11/09 08:43:06;;;;;;;25.52;15.98;;;;;;;13.46;87.32;101247.50;4972770;28;20062;-74
2022/11/09 08:45:36;;;;;;;30.50;16.45;;;;;;;13.31;88.19;101240.97;4973173;28;20043;-74
2022/11/09 08:48:05;;;;;;;29.65;16.35;;;;;;;13.37;87.88;101248.09;4972768;28;20054;-74
2022/11/09 08:50:35;;;;;;;29.38;16.50;;;;;;;13.54;86.53;101255.19;4973220;28;20054;-72
2022/11/09 08:53:04;;;;;;;29.98;16.98;;;;;;;13.63;85.35;101256.22;4972881;28;20132;-73
2022/11/09 08:55:32;;;;;;;34.03;18.35;;;;;;;13.82;86.49;101252.81;4972709;28;20055;-73
2022/11/09 08:58:01;;;;;;;34.25;17.75;;;;;;;13.95;86.16;101252.19;4972818;28;20061;-73
2022/11/09 09:00:29;;;;;;;28.38;16.73;;;;;;;13.89;85.04;101275.31;4973310;28;20050;-73
2022/11/09 09:02:57;;;;;;;33.92;17.10;;;;;;;14.02;85.06;101264.78;4973287;28;20378;-73
2022/11/09 09:05:25;;;;;;;28.77;17.48;;;;;;;13.95;85.04;101274.19;4973038;28;20501;-72
2022/11/09 09:07:53;;;;;;;27.60;17.17;;;;;;;13.95;83.81;101268.69;4972524;28;20050;-73
2022/11/09 09:10:21;;;;;;;29.45;17.13;;;;;;;14.04;84.19;101276.31;4975947;28;20042;-73
2022/11/09 09:12:49;;;;;;;35.13;17.73;;;;;;;14.11;85.67;101272.16;4976740;28;20055;-72
2022/11/09 09:15:17;;;;;;;36.55;18.10;;;;;;;14.06;85.76;101274.09;4976338;28;20058;-72
2022/11/09 09:17:44;;;;;;;31.13;18.98;;;;;;;14.12;85.82;101281.22;4976702;28;20051;-72
2022/11/09 09:20:12;;;;;;;31.83;20.23;;;;;;;14.12;85.77;101283.97;4976227;28;20062;-76
2022/11/09 09:22:40;;;;;;;34.35;21.25;;;;;;;14.03;85.87;101280.19;4976506;28;20059;-77
2022/11/09 09:25:08;;;;;;;35.38;20.13;;;;;;;14.04;86.70;101276.31;4977148;28;20386;-78
2022/11/09 09:27:36;;;;;;;36.78;21.00;;;;;;;14.12;87.14;101283.97;4976545;28;20045;-77
2022/11/09 09:30:05;;;;;;;31.52;19.17;;;;;;;14.01;87.73;101293.41;4975733;28;20402;-77
2022/11/09 09:32:36;;;;;;;34.78;20.20;;;;;;;13.73;89.72;101282.84;4976460;28;20039;-71
2022/11/09 09:35:04;;;;;;;32.72;19.83;;;;;;;13.55;90.91;101282.38;4976551;28;20046;-73
2022/11/09 09:37:32;;;;;;;31.48;20.40;;;;;;;13.80;90.23;101288.03;4976125;28;20042;-78
2022/11/09 09:40:00;;;;;;;36.65;20.77;;;;;;;13.87;89.04;101287.72;4976019;28;20051;-77
2022/11/09 09:42:36;;;;;;;36.25;20.90;;;;;;;13.95;87.09;101301.72;4976382;28;20051;-77
2022/11/09 09:45:12;;;;;;;33.70;19.98;;;;;;;13.90;88.60;101301.75;4976131;28;20046;-77
2022/11/09 09:47:45;;;;;;;40.78;21.25;;;;;;;13.89;89.29;101294.56;4976060;28;20058;-77
2022/11/09 09:50:25;;;;;;;37.25;20.75;;;;;;;13.92;88.99;101285.75;4975747;28;20054;-77
2022/11/09 09:53:02;;;;;;;36.45;21.25;;;;;;;13.81;89.85;101286.94;4976152;28;20396;-76
2022/11/09 09:55:59;;;;;;;41.97;21.40;;;;;;;14.03;89.78;101296.69;4976092;28;20383;-78
2022/11/09 09:58:30;;;;;;;35.42;22.05;;;;;;;13.90;88.24;101303.66;4975491;28;20059;-77
2022/11/09 10:01:15;;;;;;;45.13;24.85;;;;;;;14.12;86.88;101305.97;4976269;28;20059;-77
2022/11/09 10:03:43;;;;;;;44.05;25.00;;;;;;;13.93;88.84;101303.91;4976357;28;20059;-77
2022/11/09 10:06:32;;;;;;;40.10;23.15;;;;;;;13.90;89.71;101293.47;4975881;28;20492;-77
2022/11/09 10:09:09;;;;;;;43.80;24.77;;;;;;;13.86;89.42;101297.91;4975295;28;20054;-77
2022/11/09 10:12:03;;;;;;;46.58;25.25;;;;;;;13.93;89.73;101295.66;4975424;28;20476;-77
2022/11/09 10:14:52;;;;;;;47.80;26.08;;;;;;;13.72;90.24;101283.16;4975852;28;20054;-77
2022/11/09 10:17:22;;;;;;;49.55;25.70;;;;;;;13.75;90.33;101280.66;4974913;28;20055;-77
2022/11/09 10:20:23;;;;;;;42.00;23.85;;;;;;;14.01;85.20;101276.88;4983208;28;20058;-87
2022/11/09 10:22:54;;;;;;;38.85;22.75;;;;;;;14.13;83.54;101290.31;4961126;28;20046;-89
2022/11/09 10:25:25;;;;;;;40.92;22.02;;;;;;;14.13;84.63;101291.09;4950629;28;20043;-96
2022/11/09 10:28:16;;;;;;;41.60;23.80;;;;;;;14.33;87.63;101294.81;4993452;28;20504;-96
2022/11/09 10:30:46;;;;;;;40.35;22.20;;;;;;;14.36;84.13;101275.78;4988490;28;20112;-96
2022/11/09 10:33:20;;;;;;;43.60;24.30;;;;;;;14.38;87.22;101276.31;4989815;28;20046;-96
2022/11/09 10:35:54;;;;;;;46.67;23.92;;;;;;;14.56;81.24;101257.44;4975755;28;20046;-96
2022/11/09 10:38:28;;;;;;;;;;;;;;;14.78;80.98;101270.72;4962993;28;20043;-96
2022/11/09 10:41:38;;;;;;;41.70;21.55;;;;;;;14.60;83.25;101265.94;4967246;28;20030;-96
2022/11/09 10:44:26;;;;;;;42.35;23.83;;;;;;;14.66;83.97;101253.75;4970740;28;20061;-96
2022/11/09 10:47:16;;;;;;;38.15;22.60;;;;;;;14.56;84.30;101251.91;4979998;28;20046;-96
2022/11/09 10:50:08;;;;;;;39.20;22.77;;;;;;;14.56;84.49;101242.84;4963939;28;20047;-96
2022/11/09 10:53:09;;;;;;;41.22;23.30;;;;;;;14.78;83.50;101248.69;5018826;28;20031;-95
2022/11/09 10:55:56;;;;;;;45.03;22.80;;;;;;;14.85;81.06;101236.50;5010995;28;20030;-95
2022/11/09 10:58:47;;;;;;;39.22;21.52;;;;;;;14.95;82.06;101238.34;4996740;28;20051;-96
2022/11/09 11:01:37;;;;;;;33.53;21.17;;;;;;;15.11;78.71;101241.72;4980876;28;20043;-96
2022/11/09 11:04:25;;;;;;;31.02;19.33;;;;;;;15.11;78.91;101245.28;4978444;28;20411;-96
2022/11/09 11:07:19;;;;;;;34.92;18.88;;;;;;;15.19;77.25;101246.56;4984518;28;20054;-96
2022/11/09 11:10:13;;;;;;;37.10;18.50;;;;;;;15.29;79.13;101240.94;4962642;28;20046;-96
2022/11/09 11:13:00;;;;;;;33.20;19.75;;;;;;;15.28;79.26;101222.75;4992052;28;20062;-96
2022/11/09 11:15:47;;;;;;;32.65;19.70;;;;;;;15.35;77.47;101227.88;4986859;28;20055;-94
2022/11/09 11:18:35;;;;;;;33.10;19.98;;;;;;;15.28;78.39;101235.72;4956049;29;20050;-95
2022/11/09 11:21:26;;;;;;;31.50;18.75;;;;;;;15.34;79.59;101244.75;4966423;28;20059;-94
2022/11/09 11:24:18;;;;;;;37.60;22.67;;;;;;;15.29;80.55;101229.91;4975080;28;20055;-95
2022/11/09 11:27:12;;;;;;;42.63;23.98;;;;;;;15.27;82.45;101234.06;4990000;28;20046;-90
2022/11/09 11:30:05;;;;;;;36.35;21.83;;;;;;;15.37;81.54;101228.44;4941617;29;20498;-93
2022/11/09 11:32:51;;;;;;;35.42;20.70;;;;;;;15.41;80.01;101218.44;4970700;28;20054;-92
2022/11/09 11:35:44;;;;;;;40.78;21.45;;;;;;;15.57;80.15;101209.94;4976887;28;20501;-93
2022/11/09 11:38:39;;;;;;;40.13;22.60;;;;;;;15.60;78.79;101214.88;4976870;28;20062;-94
2022/11/09 11:42:05;;;;;;;34.33;20.90;;;;;;;15.58;80.20;101219.84;4974426;28;20414;-93
2022/11/09 11:44:58;;;;;;;41.28;22.17;;;;;;;15.50;79.78;101210.31;4954404;28;20054;-94
2022/11/09 11:48:24;;;;;;;39.50;22.85;;;;;;;15.45;80.33;101215.91;4963646;28;20050;-93